createdAt,value
2019-04-22T00:00:39.235Z,0.00
2019-04-22T00:01:36.848Z,0.00
2019-04-22T00:02:43.569Z,0.00
2019-04-22T00:03:45.542Z,0.00
2019-04-22T00:04:50.917Z,0.00
2019-04-22T00:05:56.215Z,0.00
2019-04-22T00:06:58.388Z,0.00
2019-04-22T00:08:01.643Z,0.00
2019-04-22T00:09:03.736Z,0.00
2019-04-22T00:10:04.612Z,0.00
2019-04-22T00:11:04.603Z,0.00
2019-04-22T00:12:06.307Z,0.00
2019-04-22T00:13:01.437Z,0.00
2019-04-22T00:14:01.263Z,0.00
2019-04-22T00:15:01.910Z,0.00
2019-04-22T00:15:58.374Z,0.00
2019-04-22T00:17:07.274Z,0.00
2019-04-22T00:18:07.697Z,0.00
2019-04-22T00:19:15.106Z,0.00
2019-04-22T00:20:04.661Z,0.00
2019-04-22T00:21:04.711Z,0.00
2019-04-22T00:22:07.785Z,0.00
2019-04-22T00:22:56.742Z,0.00
2019-04-22T00:25:10.033Z,0.00
2019-04-22T00:26:03.868Z,0.00
2019-04-22T00:27:03.903Z,0.00
2019-04-22T00:28:02.354Z,0.00
2019-04-22T00:29:21.392Z,0.00
2019-04-22T00:30:10.613Z,0.00
2019-04-22T00:31:06.673Z,0.00
2019-04-22T00:31:54.372Z,0.00
2019-04-22T00:34:02.278Z,0.00
2019-04-22T00:35:02.349Z,0.00
2019-04-22T00:36:01.163Z,0.00
2019-04-22T00:37:01.015Z,0.00
2019-04-22T00:38:05.114Z,0.00
2019-04-22T00:39:09.728Z,0.00
2019-04-22T00:39:57.293Z,0.00
2019-04-22T00:41:02.461Z,0.00
2019-04-22T00:42:01.962Z,0.00
2019-04-22T00:42:58.733Z,0.00
2019-04-22T00:44:02.906Z,0.00
2019-04-22T00:45:09.465Z,0.00
2019-04-22T00:45:57.762Z,0.00
2019-04-22T00:47:01.842Z,0.00
2019-04-22T00:48:01.058Z,0.00
2019-04-22T00:49:49.425Z,0.00
2019-04-22T00:50:12.738Z,0.00
2019-04-22T00:51:05.799Z,0.00
2019-04-22T00:53:04.544Z,0.00
2019-04-22T00:54:03.543Z,0.00
2019-04-22T00:55:05.581Z,0.00
2019-04-22T00:56:00.637Z,0.00
2019-04-22T00:57:01.474Z,0.00
2019-04-22T00:58:02.851Z,0.00
2019-04-22T00:58:59.111Z,0.00
2019-04-22T00:59:54.962Z,0.00
2019-04-22T01:01:03.439Z,0.00
2019-04-22T01:02:00.403Z,0.00
2019-04-22T01:03:02.996Z,0.00
2019-04-22T01:04:03.991Z,0.00
2019-04-22T01:05:00.759Z,0.00
2019-04-22T01:06:03.456Z,0.00
2019-04-22T01:06:58.638Z,0.00
2019-04-22T01:08:07.081Z,0.00
2019-04-22T01:10:07.533Z,0.00
2019-04-22T01:11:06.340Z,0.00
2019-04-22T01:12:00.139Z,0.00
2019-04-22T01:13:01.632Z,0.00
2019-04-22T01:14:01.440Z,0.00
2019-04-22T01:15:01.068Z,0.00
2019-04-22T01:16:09.449Z,0.00
2019-04-22T01:17:01.458Z,0.00
2019-04-22T01:18:00.296Z,0.00
2019-04-22T01:18:59.274Z,0.00
2019-04-22T01:20:04.666Z,0.00
2019-04-22T01:21:58.329Z,0.00
2019-04-22T01:23:02.075Z,0.00
2019-04-22T01:24:59.293Z,0.00
2019-04-22T01:25:55.230Z,0.00
2019-04-22T01:26:56.298Z,0.00
2019-04-22T01:27:54.454Z,0.00
2019-04-22T01:28:51.582Z,0.00
2019-04-22T01:29:51.467Z,0.00
2019-04-22T01:30:48.483Z,0.00
2019-04-22T01:31:38.847Z,0.00
2019-04-22T01:32:41.803Z,0.00
2019-04-22T01:33:44.154Z,0.00
2019-04-22T01:34:49.930Z,0.00
2019-04-22T01:35:56.910Z,0.00
2019-04-22T01:37:54.619Z,0.00
2019-04-22T01:38:58.342Z,0.00
2019-04-22T01:40:04.509Z,0.00
2019-04-22T01:41:07.152Z,0.00
2019-04-22T01:42:05.503Z,0.00
2019-04-22T01:43:03.758Z,0.00
2019-04-22T01:44:15.864Z,0.00
2019-04-22T01:44:59.584Z,0.00
2019-04-22T01:46:01.769Z,0.00
2019-04-22T01:47:08.152Z,0.00
2019-04-22T01:48:08.624Z,0.00
2019-04-22T01:48:59.908Z,0.00
2019-04-22T01:50:04.705Z,0.00
2019-04-22T01:50:54.784Z,0.00
2019-04-22T01:52:18.681Z,0.00
2019-04-22T01:53:08.638Z,0.00
2019-04-22T01:54:05.487Z,0.00
2019-04-22T01:55:04.481Z,0.00
2019-04-22T01:56:02.119Z,0.00
2019-04-22T01:57:02.192Z,0.00
2019-04-22T01:57:59.628Z,0.00
2019-04-22T01:58:54.690Z,0.00
2019-04-22T01:59:51.546Z,0.00
2019-04-22T02:00:59.248Z,0.00
2019-04-22T02:02:02.708Z,0.00
2019-04-22T02:03:07.234Z,0.00
2019-04-22T02:04:01.304Z,0.00
2019-04-22T02:05:04.908Z,0.00
2019-04-22T02:06:00.657Z,0.00
2019-04-22T02:07:05.305Z,0.00
2019-04-22T02:08:08.529Z,0.00
2019-04-22T02:09:14.039Z,0.00
2019-04-22T02:10:07.435Z,0.00
2019-04-22T02:11:01.006Z,0.00
2019-04-22T02:13:04.517Z,0.00
2019-04-22T02:14:09.166Z,0.00
2019-04-22T02:14:59.036Z,0.00
2019-04-22T02:16:09.548Z,0.00
2019-04-22T02:17:02.336Z,0.00
2019-04-22T02:18:03.227Z,0.00
2019-04-22T02:19:02.623Z,0.00
2019-04-22T02:20:08.595Z,0.00
2019-04-22T02:21:03.158Z,0.00
2019-04-22T02:21:59.643Z,0.00
2019-04-22T02:23:19.323Z,0.00
2019-04-22T02:24:20.011Z,0.00
2019-04-22T02:24:59.207Z,0.00
2019-04-22T02:26:02.465Z,0.00
2019-04-22T02:27:06.255Z,0.00
2019-04-22T02:28:11.224Z,0.00
2019-04-22T02:29:03.479Z,0.00
2019-04-22T02:29:57.879Z,0.00
2019-04-22T02:31:23.216Z,0.00
2019-04-22T02:32:13.350Z,0.00
2019-04-22T02:36:20.253Z,0.00
2019-04-22T02:37:06.929Z,0.00
2019-04-22T02:38:07.773Z,0.00
2019-04-22T02:39:07.983Z,0.00
2019-04-22T02:40:10.194Z,0.00
2019-04-22T02:42:14.323Z,0.00
2019-04-22T02:43:19.249Z,0.00
2019-04-22T02:45:04.567Z,0.00
2019-04-22T02:46:22.426Z,0.00
2019-04-22T02:48:20.191Z,0.00
2019-04-22T02:49:11.715Z,0.00
2019-04-22T02:50:06.499Z,0.00
2019-04-22T02:52:06.386Z,0.00
2019-04-22T02:53:17.580Z,0.00
2019-04-22T02:56:23.062Z,0.00
2019-04-22T02:57:18.879Z,0.00
2019-04-22T02:58:03.702Z,0.00
2019-04-22T02:59:12.381Z,0.00
2019-04-22T03:01:13.545Z,0.00
2019-04-22T03:02:12.007Z,0.00
2019-04-22T03:03:20.668Z,0.00
2019-04-22T03:04:10.984Z,0.00
2019-04-22T03:05:13.102Z,0.00
2019-04-22T03:06:55.578Z,0.00
2019-04-22T03:08:14.936Z,0.00
2019-04-22T03:11:12.443Z,0.00
2019-04-22T03:12:11.275Z,0.00
2019-04-22T03:13:16.109Z,0.00
2019-04-22T03:15:06.215Z,0.00
2019-04-22T03:16:17.727Z,0.00
2019-04-22T03:17:10.981Z,0.00
2019-04-22T03:20:06.221Z,0.00
2019-04-22T03:21:03.098Z,0.00
2019-04-22T03:22:14.158Z,0.00
2019-04-22T03:23:17.293Z,0.00
2019-04-22T03:24:17.910Z,0.00
2019-04-22T03:25:34.783Z,0.00
2019-04-22T03:27:58.308Z,0.00
2019-04-22T03:29:04.714Z,0.00
2019-04-22T03:31:04.209Z,0.00
2019-04-22T03:32:32.024Z,0.00
2019-04-22T03:34:54.696Z,0.00
2019-04-22T03:36:36.452Z,0.00
2019-04-22T03:37:21.439Z,0.00
2019-04-22T03:38:20.166Z,0.00
2019-04-22T03:39:29.938Z,0.00
2019-04-22T03:41:13.358Z,4.00
2019-04-22T03:42:07.453Z,4.00
2019-04-22T03:44:18.812Z,0.00
2019-04-22T03:45:12.762Z,4.00
2019-04-22T03:46:06.624Z,4.00
2019-04-22T03:48:04.729Z,4.00
2019-04-22T03:49:17.641Z,0.00
2019-04-22T03:50:17.501Z,4.00
2019-04-22T03:51:20.238Z,4.00
2019-04-22T03:53:11.462Z,4.00
2019-04-22T03:54:10.449Z,8.00
2019-04-22T03:57:28.240Z,12.00
2019-04-22T03:57:57.182Z,12.00
2019-04-22T03:59:16.205Z,16.00
2019-04-22T04:00:21.946Z,20.00
2019-04-22T04:01:06.487Z,20.00
2019-04-22T04:02:15.714Z,24.00
2019-04-22T04:05:01.131Z,44.00
2019-04-22T04:05:59.226Z,52.00
2019-04-22T04:08:18.358Z,68.00
2019-04-22T04:09:13.693Z,84.00
2019-04-22T04:10:10.368Z,96.00
2019-04-22T04:11:12.986Z,112.00
2019-04-22T04:12:03.743Z,132.00
2019-04-22T04:14:12.340Z,172.00
2019-04-22T04:15:14.028Z,196.00
2019-04-22T04:16:03.151Z,228.00
2019-04-22T04:17:59.408Z,304.00
2019-04-22T04:20:10.917Z,400.00
2019-04-22T04:21:20.541Z,444.00
2019-04-22T04:22:09.798Z,500.00
2019-04-22T04:24:24.008Z,612.00
2019-04-22T04:26:09.365Z,732.00
2019-04-22T04:27:28.518Z,796.00
2019-04-22T04:29:27.977Z,944.00
2019-04-22T04:31:09.602Z,1108.00
2019-04-22T04:32:18.863Z,1200.00
2019-04-22T04:33:13.393Z,1292.00
2019-04-22T04:36:14.396Z,1588.00
2019-04-22T04:37:18.175Z,1692.00
2019-04-22T04:38:00.657Z,1808.00
2019-04-22T04:39:05.584Z,1920.00
2019-04-22T04:40:18.169Z,2040.00
2019-04-22T04:41:23.229Z,2168.00
2019-04-22T04:42:16.204Z,2288.00
2019-04-22T04:43:00.875Z,2420.00
2019-04-22T04:45:26.551Z,2684.00
2019-04-22T04:47:17.678Z,2972.00
2019-04-22T04:48:00.945Z,3112.00
2019-04-22T04:50:09.699Z,3416.00
2019-04-22T04:52:10.504Z,3752.00
2019-04-22T04:54:13.107Z,4120.00
2019-04-22T04:55:18.395Z,4320.00
2019-04-22T04:56:10.904Z,4524.00
2019-04-22T04:57:07.521Z,4720.00
2019-04-22T04:58:18.326Z,4920.00
2019-04-22T04:59:16.809Z,5116.00
2019-04-22T05:00:32.680Z,5312.00
2019-04-22T05:01:23.309Z,5512.00
2019-04-22T05:02:12.281Z,5700.00
2019-04-22T05:06:09.634Z,6244.00
2019-04-22T05:07:14.001Z,6360.00
2019-04-22T05:08:00.562Z,6452.00
2019-04-22T05:10:23.913Z,6700.00
2019-04-22T05:13:01.747Z,7288.00
2019-04-22T05:14:05.652Z,7452.00
2019-04-22T05:16:22.907Z,7732.00
2019-04-22T05:17:03.970Z,7900.00
2019-04-22T05:20:07.373Z,8200.00
2019-04-22T05:22:13.285Z,8728.00
2019-04-22T05:23:01.919Z,8912.00
2019-04-22T05:25:09.961Z,9200.00
2019-04-22T05:26:04.284Z,9360.00
2019-04-22T05:27:11.297Z,9528.00
2019-04-22T05:27:57.673Z,9636.00
2019-04-22T05:29:02.182Z,9740.00
2019-04-22T05:30:19.595Z,9816.00
2019-04-22T05:31:03.365Z,9812.00
2019-04-22T05:31:59.705Z,9724.00
2019-04-22T05:33:18.410Z,9724.00
2019-04-22T05:34:05.526Z,9588.00
2019-04-22T05:35:00.229Z,9392.00
2019-04-22T05:36:01.557Z,9860.00
2019-04-22T05:37:01.241Z,10288.00
2019-04-22T05:38:05.054Z,10584.00
2019-04-22T05:39:00.154Z,11036.00
2019-04-22T05:40:04.461Z,11444.00
2019-04-22T05:41:00.528Z,11828.00
2019-04-22T05:42:03.203Z,12232.00
2019-04-22T05:42:56.571Z,12776.00
2019-04-22T05:44:04.993Z,14740.00
2019-04-22T05:45:05.571Z,20928.00
2019-04-22T05:46:01.087Z,28512.00
2019-04-22T05:46:53.291Z,29440.00
2019-04-22T05:47:56.293Z,30688.00
2019-04-22T05:49:03.267Z,35264.00
2019-04-22T05:49:54.636Z,36544.00
2019-04-22T05:50:56.436Z,39168.00
2019-04-22T05:51:54.615Z,40288.00
2019-04-22T05:52:55.402Z,43648.00
2019-04-22T05:54:02.806Z,46592.00
2019-04-22T05:55:03.314Z,46016.00
2019-04-22T05:56:20.702Z,46752.00
2019-04-22T05:56:58.647Z,46400.00
2019-04-22T05:57:57.726Z,47936.00
2019-04-22T05:59:03.636Z,47584.00
2019-04-22T05:59:59.487Z,48160.00
2019-04-22T06:01:21.738Z,49408.00
2019-04-22T06:03:06.991Z,48096.00
2019-04-22T06:04:58.275Z,47968.00
2019-04-22T06:05:55.039Z,45120.00
2019-04-22T06:06:54.079Z,46208.00
2019-04-22T06:08:57.651Z,42176.00
2019-04-22T06:10:04.318Z,34432.00
2019-04-22T06:11:04.225Z,34400.00
2019-04-22T06:11:54.354Z,38688.00
2019-04-22T06:12:59.633Z,41760.00
2019-04-22T06:13:57.632Z,43808.00
2019-04-22T06:15:01.279Z,46176.00
2019-04-22T06:15:54.388Z,48032.00
2019-04-22T06:16:57.172Z,49120.00
2019-04-22T06:18:07.723Z,47872.00
2019-04-22T06:19:03.061Z,49504.00
2019-04-22T06:19:57.451Z,51168.00
2019-04-22T06:20:59.431Z,54048.00
2019-04-22T06:21:58.002Z,56960.00
2019-04-22T06:24:04.815Z,45408.00
2019-04-22T06:25:02.983Z,44224.00
2019-04-22T06:26:09.764Z,42496.00
2019-04-22T06:28:03.391Z,46496.00
2019-04-22T06:29:05.670Z,53984.00
2019-04-22T06:29:53.731Z,61952.00
2019-04-22T06:31:03.729Z,69088.00
2019-04-22T06:32:17.879Z,70912.00
2019-04-22T06:33:05.174Z,71616.00
2019-04-22T06:34:02.579Z,69632.00
2019-04-22T06:35:00.455Z,67680.00
2019-04-22T06:37:11.908Z,67200.00
2019-04-22T06:38:19.148Z,67584.00
2019-04-22T06:38:51.381Z,62528.00
2019-04-22T06:39:59.371Z,52768.00
2019-04-22T06:41:04.236Z,39136.00
2019-04-22T06:42:06.002Z,26560.00
2019-04-22T06:43:05.656Z,22336.00
2019-04-22T06:44:04.770Z,21440.00
2019-04-22T06:44:58.066Z,20960.00
2019-04-22T06:45:58.382Z,21024.00
2019-04-22T06:47:03.148Z,20736.00
2019-04-22T06:49:03.184Z,20256.00
2019-04-22T06:50:00.451Z,20256.00
2019-04-22T06:50:52.790Z,20320.00
2019-04-22T06:52:04.201Z,20352.00
2019-04-22T06:52:59.863Z,20320.00
2019-04-22T06:53:55.669Z,20320.00
2019-04-22T06:55:03.908Z,20352.00
2019-04-22T06:56:11.158Z,20704.00
2019-04-22T06:57:04.312Z,21568.00
2019-04-22T06:57:59.720Z,38336.00
2019-04-22T06:58:58.024Z,71680.00
2019-04-22T07:00:02.452Z,92576.00
2019-04-22T07:00:58.999Z,89856.00
2019-04-22T07:03:23.278Z,87520.00
2019-04-22T07:03:57.294Z,78848.00
2019-04-22T07:04:57.144Z,73536.00
2019-04-22T07:05:59.551Z,72320.00
2019-04-22T07:07:05.205Z,72608.00
2019-04-22T07:08:14.105Z,74272.00
2019-04-22T07:09:20.713Z,81632.00
2019-04-22T07:10:06.624Z,86816.00
2019-04-22T07:10:54.849Z,83072.00
2019-04-22T07:12:02.131Z,80512.00
2019-04-22T07:12:56.892Z,76416.00
2019-04-22T07:14:01.327Z,73664.00
2019-04-22T07:16:13.425Z,43360.00
2019-04-22T07:16:56.144Z,22048.00
2019-04-22T07:17:55.184Z,20960.00
2019-04-22T07:18:54.989Z,20320.00
2019-04-22T07:20:01.936Z,19808.00
2019-04-22T07:20:57.836Z,19488.00
2019-04-22T07:21:57.601Z,19392.00
2019-04-22T07:23:04.476Z,19104.00
2019-04-22T07:24:15.012Z,19264.00
2019-04-22T07:24:59.180Z,19584.00
2019-04-22T07:25:58.428Z,19424.00
2019-04-22T07:27:02.973Z,19264.00
2019-04-22T07:27:58.218Z,19232.00
2019-04-22T07:28:57.516Z,19200.00
2019-04-22T07:30:06.951Z,19488.00
2019-04-22T07:31:01.886Z,20608.00
2019-04-22T07:32:05.006Z,50432.00
2019-04-22T07:33:15.124Z,95680.00
2019-04-22T07:33:58.478Z,93184.00
2019-04-22T07:35:04.109Z,90912.00
2019-04-22T07:37:23.083Z,92544.00
2019-04-22T07:37:53.886Z,80800.00
2019-04-22T07:38:56.561Z,57856.00
2019-04-22T07:39:50.060Z,25440.00
2019-04-22T07:40:55.437Z,19712.00
2019-04-22T07:41:51.289Z,19424.00
2019-04-22T07:42:59.275Z,19264.00
2019-04-22T07:44:54.819Z,18944.00
2019-04-22T07:45:58.844Z,18848.00
2019-04-22T07:47:10.093Z,18720.00
2019-04-22T07:48:01.977Z,18720.00
2019-04-22T07:48:59.343Z,18656.00
2019-04-22T07:49:59.206Z,18592.00
2019-04-22T07:51:55.752Z,18432.00
2019-04-22T07:52:51.889Z,18464.00
2019-04-22T07:54:00.089Z,18464.00
2019-04-22T07:54:56.855Z,18528.00
2019-04-22T07:55:58.730Z,18560.00
2019-04-22T07:57:04.294Z,18656.00
2019-04-22T07:57:58.283Z,18752.00
2019-04-22T07:58:56.451Z,18816.00
2019-04-22T08:00:02.887Z,18944.00
2019-04-22T08:01:06.297Z,19040.00
2019-04-22T08:01:56.232Z,19296.00
2019-04-22T08:03:04.336Z,19520.00
2019-04-22T08:04:16.032Z,20064.00
2019-04-22T08:05:07.442Z,28672.00
2019-04-22T08:06:05.376Z,64992.00
2019-04-22T08:06:57.332Z,98400.00
2019-04-22T08:08:05.358Z,103808.00
2019-04-22T08:09:01.821Z,105248.00
2019-04-22T08:10:57.794Z,93024.00
2019-04-22T08:11:56.368Z,85824.00
2019-04-22T08:13:01.931Z,81280.00
2019-04-22T08:13:55.272Z,77568.00
2019-04-22T08:15:12.463Z,81952.00
2019-04-22T08:15:55.440Z,89056.00
2019-04-22T08:17:01.480Z,97504.00
2019-04-22T08:18:01.546Z,103008.00
2019-04-22T08:19:02.970Z,101568.00
2019-04-22T08:20:59.056Z,92992.00
2019-04-22T08:21:57.065Z,93440.00
2019-04-22T08:23:02.911Z,93440.00
2019-04-22T08:23:56.558Z,94976.00
2019-04-22T08:25:55.473Z,99520.00
2019-04-22T08:26:57.929Z,95904.00
2019-04-22T08:27:57.292Z,88352.00
2019-04-22T08:29:02.231Z,88928.00
2019-04-22T08:30:14.366Z,83296.00
2019-04-22T08:31:01.919Z,85120.00
2019-04-22T08:33:15.995Z,96256.00
2019-04-22T08:33:54.590Z,90272.00
2019-04-22T08:34:55.410Z,86432.00
2019-04-22T08:37:26.205Z,90016.00
2019-04-22T08:40:03.492Z,95744.00
2019-04-22T08:40:56.273Z,92384.00
2019-04-22T08:41:55.526Z,90720.00
2019-04-22T08:45:57.070Z,94784.00
2019-04-22T08:47:08.970Z,92512.00
2019-04-22T08:47:55.302Z,89920.00
2019-04-22T08:49:00.725Z,95776.00
2019-04-22T08:50:04.852Z,99680.00
2019-04-22T08:51:00.710Z,100512.00
2019-04-22T08:51:56.810Z,99072.00
2019-04-22T08:53:03.017Z,95072.00
2019-04-22T08:54:03.118Z,95232.00
2019-04-22T08:54:57.543Z,95808.00
2019-04-22T08:56:10.911Z,85024.00
2019-04-22T08:57:03.410Z,77920.00
2019-04-22T08:59:07.068Z,93728.00
2019-04-22T08:59:59.560Z,94528.00
2019-04-22T09:00:57.255Z,92576.00
2019-04-22T09:02:01.043Z,92544.00
2019-04-22T09:03:00.610Z,89696.00
2019-04-22T09:03:58.513Z,91776.00
2019-04-22T09:04:56.948Z,92064.00
2019-04-22T09:06:04.894Z,93408.00
2019-04-22T09:07:58.739Z,95328.00
2019-04-22T09:09:01.960Z,94944.00
2019-04-22T09:09:55.822Z,92160.00
2019-04-22T09:10:58.536Z,91488.00
2019-04-22T09:13:58.672Z,82976.00
2019-04-22T09:14:49.296Z,87232.00
2019-04-22T09:15:58.857Z,92736.00
2019-04-22T09:17:01.321Z,90752.00
2019-04-22T09:19:56.030Z,91072.00
2019-04-22T09:21:09.036Z,91328.00
2019-04-22T09:22:00.475Z,89632.00
2019-04-22T09:23:04.549Z,85184.00
2019-04-22T09:24:00.447Z,84064.00
2019-04-22T09:24:54.709Z,89728.00
2019-04-22T09:25:57.590Z,94080.00
2019-04-22T09:26:54.227Z,94400.00
2019-04-22T09:27:59.546Z,90848.00
2019-04-22T09:29:02.825Z,91072.00
2019-04-22T09:30:17.026Z,91616.00
2019-04-22T09:32:00.313Z,91392.00
2019-04-22T09:33:06.646Z,91648.00
2019-04-22T09:33:53.286Z,93216.00
2019-04-22T09:34:51.491Z,91456.00
2019-04-22T09:36:00.136Z,90592.00
2019-04-22T09:37:04.729Z,92192.00
2019-04-22T09:38:52.681Z,83392.00
2019-04-22T09:40:03.245Z,80576.00
2019-04-22T09:40:52.634Z,83200.00
2019-04-22T09:42:03.362Z,85824.00
2019-04-22T09:42:56.054Z,87264.00
2019-04-22T09:43:56.683Z,87904.00
2019-04-22T09:44:53.779Z,87104.00
2019-04-22T09:45:53.164Z,84096.00
2019-04-22T09:46:52.251Z,79776.00
2019-04-22T09:49:04.752Z,77888.00
2019-04-22T09:50:01.985Z,81056.00
2019-04-22T09:50:52.614Z,84960.00
2019-04-22T09:51:58.892Z,85984.00
2019-04-22T09:52:51.543Z,82944.00
2019-04-22T09:54:00.763Z,82272.00
2019-04-22T09:54:59.611Z,83072.00
2019-04-22T09:55:57.175Z,85504.00
2019-04-22T09:56:55.106Z,87072.00
2019-04-22T09:57:55.648Z,86784.00
2019-04-22T09:58:58.970Z,85408.00
2019-04-22T09:59:57.800Z,82144.00
2019-04-22T10:01:07.104Z,78176.00
2019-04-22T10:03:03.579Z,72768.00
2019-04-22T10:04:03.443Z,75456.00
2019-04-22T10:05:00.541Z,78848.00
2019-04-22T10:06:00.808Z,81600.00
2019-04-22T10:06:54.233Z,79872.00
2019-04-22T10:07:59.495Z,76640.00
2019-04-22T10:10:03.680Z,75040.00
2019-04-22T10:10:58.011Z,76512.00
2019-04-22T10:11:58.685Z,74592.00
2019-04-22T10:12:57.797Z,72128.00
2019-04-22T10:14:55.885Z,76672.00
2019-04-22T10:15:54.808Z,72576.00
2019-04-22T10:16:54.012Z,73152.00
2019-04-22T10:17:56.554Z,77120.00
2019-04-22T10:19:00.559Z,78336.00
2019-04-22T10:19:53.747Z,77184.00
2019-04-22T10:21:02.350Z,77440.00
2019-04-22T10:22:12.141Z,78112.00
2019-04-22T10:23:00.060Z,75232.00
2019-04-22T10:23:53.280Z,72768.00
2019-04-22T10:25:01.669Z,70400.00
2019-04-22T10:26:02.561Z,70624.00
2019-04-22T10:27:08.036Z,71744.00
2019-04-22T10:28:03.352Z,74752.00
2019-04-22T10:29:00.809Z,73376.00
2019-04-22T10:30:52.183Z,69792.00
2019-04-22T10:31:55.869Z,67136.00
2019-04-22T10:32:52.412Z,68640.00
2019-04-22T10:33:45.185Z,70688.00
2019-04-22T10:34:39.828Z,69152.00
2019-04-22T10:35:32.198Z,61728.00
2019-04-22T10:36:29.131Z,60448.00
2019-04-22T10:37:30.102Z,38560.00
2019-04-22T10:38:30.410Z,13372.00
2019-04-22T10:39:39.689Z,11512.00
2019-04-22T10:40:30.089Z,11012.00
2019-04-22T10:41:30.498Z,10700.00
2019-04-22T10:42:29.390Z,10500.00
2019-04-22T10:43:29.480Z,10368.00
2019-04-22T10:44:29.072Z,10288.00
2019-04-22T10:45:30.339Z,10208.00
2019-04-22T10:46:30.535Z,10104.00
2019-04-22T10:47:29.820Z,10048.00
2019-04-22T10:48:30.262Z,9968.00
2019-04-22T10:49:28.998Z,9912.00
2019-04-22T10:50:31.475Z,9824.00
2019-04-22T10:51:28.977Z,9744.00
2019-04-22T10:52:29.668Z,9696.00
2019-04-22T10:53:29.277Z,9608.00
2019-04-22T10:54:29.402Z,9508.00
2019-04-22T10:55:29.537Z,9436.00
2019-04-22T10:56:28.926Z,9320.00
2019-04-22T10:57:29.756Z,9192.00
2019-04-22T10:58:28.929Z,8980.00
2019-04-22T10:59:28.971Z,9012.00
2019-04-22T11:00:29.347Z,8972.00
2019-04-22T11:01:29.568Z,8904.00
2019-04-22T11:02:29.859Z,8844.00
2019-04-22T11:03:28.916Z,8764.00
2019-04-22T11:04:30.034Z,8648.00
2019-04-22T11:05:30.178Z,8556.00
2019-04-22T11:06:29.536Z,8484.00
2019-04-22T11:07:36.274Z,8428.00
2019-04-22T11:08:38.895Z,8328.00
2019-04-22T11:09:30.973Z,8260.00
2019-04-22T11:10:46.815Z,8212.00
2019-04-22T11:11:41.153Z,8140.00
2019-04-22T11:12:32.284Z,8076.00
2019-04-22T11:13:29.751Z,8048.00
2019-04-22T11:14:28.784Z,7976.00
2019-04-22T11:15:28.785Z,7884.00
2019-04-22T11:16:29.855Z,7908.00
2019-04-22T11:17:29.297Z,7876.00
2019-04-22T11:18:29.603Z,7848.00
2019-04-22T11:19:29.844Z,7804.00
2019-04-22T11:20:29.213Z,7760.00
2019-04-22T11:21:29.577Z,7716.00
2019-04-22T11:22:33.219Z,7668.00
2019-04-22T11:23:29.653Z,7628.00
2019-04-22T11:24:28.636Z,7608.00
2019-04-22T11:25:29.840Z,7576.00
2019-04-22T11:26:30.195Z,7544.00
2019-04-22T11:27:28.737Z,7516.00
2019-04-22T11:28:29.636Z,7492.00
2019-04-22T11:29:29.887Z,7452.00
2019-04-22T11:30:30.195Z,7432.00
2019-04-22T11:31:28.550Z,7400.00
2019-04-22T11:32:28.666Z,7372.00
2019-04-22T11:33:28.557Z,7340.00
2019-04-22T11:34:29.069Z,7308.00
2019-04-22T11:35:29.773Z,7260.00
2019-04-22T11:36:30.726Z,7228.00
2019-04-22T11:37:28.494Z,7196.00
2019-04-22T11:38:28.849Z,7184.00
2019-04-22T11:39:31.186Z,7176.00
2019-04-22T11:40:34.927Z,7172.00
2019-04-22T11:41:29.462Z,7168.00
2019-04-22T11:42:30.004Z,7156.00
2019-04-22T11:43:28.589Z,7156.00
2019-04-22T11:44:30.653Z,7152.00
2019-04-22T11:45:29.133Z,7124.00
2019-04-22T11:46:29.522Z,7120.00
2019-04-22T11:47:29.675Z,7096.00
2019-04-22T11:48:29.185Z,7104.00
2019-04-22T11:49:28.360Z,7096.00
2019-04-22T11:50:28.361Z,7068.00
2019-04-22T11:51:29.646Z,7072.00
2019-04-22T11:52:28.831Z,7072.00
2019-04-22T11:53:28.997Z,7076.00
2019-04-22T11:54:28.617Z,7096.00
2019-04-22T11:55:28.851Z,7112.00
2019-04-22T11:56:29.375Z,7128.00
2019-04-22T11:57:28.806Z,7144.00
2019-04-22T11:58:28.858Z,7148.00
2019-04-22T11:59:29.025Z,7164.00
2019-04-22T12:00:28.247Z,7172.00
2019-04-22T12:01:28.756Z,7164.00
2019-04-22T12:02:29.154Z,7168.00
2019-04-22T12:03:28.682Z,7160.00
2019-04-22T12:04:29.882Z,7152.00
2019-04-22T12:05:28.204Z,7160.00
2019-04-22T12:06:28.237Z,7168.00
2019-04-22T12:07:30.103Z,7148.00
2019-04-22T12:08:29.094Z,7124.00
2019-04-22T12:09:28.173Z,7052.00
2019-04-22T12:10:36.685Z,7020.00
2019-04-22T12:11:30.259Z,6908.00
2019-04-22T12:12:29.586Z,6648.00
2019-04-22T12:13:28.280Z,6784.00
2019-04-22T12:14:28.095Z,6736.00
2019-04-22T12:15:28.904Z,6684.00
2019-04-22T12:16:29.505Z,6628.00
2019-04-22T12:17:28.074Z,6584.00
2019-04-22T12:18:29.107Z,6544.00
2019-04-22T12:19:29.389Z,6512.00
2019-04-22T12:20:29.332Z,6456.00
2019-04-22T12:21:29.004Z,6420.00
2019-04-22T12:22:29.270Z,6364.00
2019-04-22T12:23:29.390Z,6292.00
2019-04-22T12:24:28.179Z,6208.00
2019-04-22T12:25:35.677Z,6148.00
2019-04-22T12:26:30.477Z,6128.00
2019-04-22T12:27:28.748Z,6108.00
2019-04-22T12:28:28.809Z,6092.00
2019-04-22T12:29:29.021Z,6072.00
2019-04-22T12:30:28.015Z,6084.00
2019-04-22T12:31:29.028Z,6092.00
2019-04-22T12:32:29.384Z,6096.00
2019-04-22T12:33:27.894Z,6096.00
2019-04-22T12:34:29.153Z,6100.00
2019-04-22T12:35:28.364Z,6100.00
2019-04-22T12:36:28.758Z,6104.00
2019-04-22T12:37:35.385Z,6116.00
2019-04-22T12:38:29.411Z,6120.00
2019-04-22T12:39:27.824Z,6128.00
2019-04-22T12:40:39.520Z,6140.00
2019-04-22T12:41:28.810Z,6160.00
2019-04-22T12:42:29.240Z,6160.00
2019-04-22T12:43:29.444Z,6152.00
2019-04-22T12:44:28.507Z,6160.00
2019-04-22T12:45:27.757Z,6184.00
2019-04-22T12:46:28.132Z,6208.00
2019-04-22T12:47:28.322Z,6188.00
2019-04-22T12:48:27.751Z,6180.00
2019-04-22T12:49:28.049Z,6172.00
2019-04-22T12:50:33.169Z,6140.00
2019-04-22T12:51:29.219Z,6212.00
2019-04-22T12:52:37.405Z,6240.00
2019-04-22T12:53:29.912Z,6232.00
2019-04-22T12:54:29.082Z,6276.00
2019-04-22T12:55:27.977Z,6316.00
2019-04-22T12:56:27.941Z,6308.00
2019-04-22T12:57:28.317Z,6352.00
2019-04-22T12:58:27.764Z,6336.00
2019-04-22T12:59:28.020Z,6332.00
2019-04-22T13:00:27.617Z,6320.00
2019-04-22T13:01:28.976Z,6256.00
2019-04-22T13:02:29.025Z,6200.00
2019-04-22T13:03:28.593Z,6208.00
2019-04-22T13:04:27.986Z,6252.00
2019-04-22T13:05:29.106Z,6208.00
2019-04-22T13:06:27.898Z,6128.00
2019-04-22T13:07:27.535Z,6068.00
2019-04-22T13:08:27.687Z,6028.00
2019-04-22T13:09:27.568Z,6052.00
2019-04-22T13:10:40.549Z,6012.00
2019-04-22T13:11:32.238Z,5984.00
2019-04-22T13:12:29.080Z,5948.00
2019-04-22T13:13:28.801Z,5848.00
2019-04-22T13:14:27.490Z,5836.00
2019-04-22T13:15:28.869Z,5844.00
2019-04-22T13:16:29.175Z,5856.00
2019-04-22T13:17:27.425Z,5808.00
2019-04-22T13:18:37.147Z,5716.00
2019-04-22T13:19:30.089Z,5704.00
2019-04-22T13:20:28.177Z,5700.00
2019-04-22T13:21:28.812Z,5728.00
2019-04-22T13:22:27.378Z,5728.00
2019-04-22T13:23:27.567Z,5724.00
2019-04-22T13:24:27.992Z,5712.00
2019-04-22T13:25:30.009Z,5688.00
2019-04-22T13:26:27.317Z,5672.00
2019-04-22T13:27:28.796Z,5660.00
2019-04-22T13:28:27.331Z,5648.00
2019-04-22T13:29:27.698Z,5624.00
2019-04-22T13:30:28.433Z,5592.00
2019-04-22T13:31:28.692Z,5572.00
2019-04-22T13:32:27.278Z,5528.00
2019-04-22T13:33:28.514Z,5500.00
2019-04-22T13:34:34.818Z,5472.00
2019-04-22T13:35:29.524Z,5428.00
2019-04-22T13:36:28.317Z,5408.00
2019-04-22T13:37:28.530Z,5428.00
2019-04-22T13:38:27.202Z,5468.00
2019-04-22T13:39:27.273Z,5476.00
2019-04-22T13:40:28.695Z,5476.00
2019-04-22T13:41:33.912Z,5472.00
2019-04-22T13:42:29.815Z,5488.00
2019-04-22T13:43:27.269Z,5488.00
2019-04-22T13:44:28.097Z,5512.00
2019-04-22T13:45:27.675Z,5524.00
2019-04-22T13:46:31.146Z,5540.00
2019-04-22T13:47:41.748Z,5536.00
2019-04-22T13:48:46.898Z,5520.00
2019-04-22T13:50:17.227Z,5504.00
2019-04-22T13:50:59.506Z,5500.00
2019-04-22T13:53:10.366Z,5492.00
2019-04-22T13:54:36.339Z,5452.00
2019-04-22T13:55:08.165Z,5452.00
2019-04-22T13:55:59.277Z,5468.00